Dakota City, Iowa
Current Conditions -  °F | °C
As of 2:15 AM on Monday 22 Dec 2014 (Local Time) from KFOD Reporting Station
Overcast Overcast  
Wind Chill: 30°   Ceiling: 600
Heat Index: 39°   Visibility: 8mi
Dew Point: 37°   Wind: 16mph
Humidity: 93%   Direction: 150°SSE
Pressure: 29.67"   Gusts: 21mph
Location:  42.72°N, 94.2°W
Report Text: KFOD 220815Z AUTO 15014G18KT 8SM OVC006 04/03 A2967 RMK AO1
Loading
Personal Weather Stations






























Interactive Weather Map New forecast layout! Learn more

10-Day Weather Forecast

Advertisements
Track Severe Weather on mobile